sensor_id;sensor_type;location;lat;lon;timestamp;pressure;altitude;pressure_sealevel;temperature;humidity
5777;BME280;2914;42.668;23.346;2023-01-28T00:01:13;93838.01;;;1.39;100.00
5777;BME280;2914;42.668;23.346;2023-01-28T00:03:43;93849.27;;;1.45;100.00
5777;BME280;2914;42.668;23.346;2023-01-28T00:06:14;93853.54;;;1.46;100.00
5777;BME280;2914;42.668;23.346;2023-01-28T00:08:44;93854.22;;;1.56;100.00
5777;BME280;2914;42.668;23.346;2023-01-28T00:11:13;93852.89;;;1.68;100.00
5777;BME280;2914;42.668;23.346;2023-01-28T00:13:42;93860.66;;;1.63;100.00
5777;BME280;2914;42.668;23.346;2023-01-28T00:16:12;93869.91;;;1.67;100.00
5777;BME280;2914;42.668;23.346;2023-01-28T00:21:24;93872.25;;;1.64;100.00
5777;BME280;2914;42.668;23.346;2023-01-28T00:23:55;93866.05;;;1.47;100.00
5777;BME280;2914;42.668;23.346;2023-01-28T00:26:24;93866.17;;;1.32;100.00
5777;BME280;2914;42.668;23.346;2023-01-28T00:28:54;93871.09;;;1.43;100.00
5777;BME280;2914;42.668;23.346;2023-01-28T00:31:24;93873.80;;;1.41;100.00
5777;BME280;2914;42.668;23.346;2023-01-28T00:36:32;93872.97;;;1.53;100.00
5777;BME280;2914;42.668;23.346;2023-01-28T00:39:03;93883.16;;;1.44;100.00
5777;BME280;2914;42.668;23.346;2023-01-28T00:41:32;93890.02;;;1.58;100.00
5777;BME280;2914;42.668;23.346;2023-01-28T00:44:01;93885.78;;;1.57;100.00
5777;BME280;2914;42.668;23.346;2023-01-28T00:46:30;93884.72;;;1.59;100.00
5777;BME280;2914;42.668;23.346;2023-01-28T00:48:59;93885.88;;;1.68;100.00
5777;BME280;2914;42.668;23.346;2023-01-28T00:51:28;93890.18;;;1.62;100.00
5777;BME280;2914;42.668;23.346;2023-01-28T00:53:58;93892.42;;;1.74;100.00
5777;BME280;2914;42.668;23.346;2023-01-28T00:56:27;93890.92;;;1.64;100.00
5777;BME280;2914;42.668;23.346;2023-01-28T00:58:56;93893.15;;;1.63;100.00
5777;BME280;2914;42.668;23.346;2023-01-28T01:04:04;93893.73;;;1.61;100.00
5777;BME280;2914;42.668;23.346;2023-01-28T01:06:35;93892.00;;;1.67;100.00
5777;BME280;2914;42.668;23.346;2023-01-28T01:09:06;93892.94;;;1.66;100.00
5777;BME280;2914;42.668;23.346;2023-01-28T01:14:14;93896.06;;;1.71;100.00
5777;BME280;2914;42.668;23.346;2023-01-28T01:16:43;93891.83;;;1.76;100.00
5777;BME280;2914;42.668;23.346;2023-01-28T01:19:14;93889.45;;;1.73;100.00
5777;BME280;2914;42.668;23.346;2023-01-28T01:21:43;93889.94;;;1.72;100.00
5777;BME280;2914;42.668;23.346;2023-01-28T01:24:13;93900.27;;;1.79;100.00
5777;BME280;2914;42.668;23.346;2023-01-28T01:26:42;93897.99;;;1.75;100.00
5777;BME280;2914;42.668;23.346;2023-01-28T01:29:11;93896.28;;;1.68;100.00
5777;BME280;2914;42.668;23.346;2023-01-28T01:31:41;93897.53;;;1.62;100.00
5777;BME280;2914;42.668;23.346;2023-01-28T01:34:10;93899.02;;;1.46;100.00
5777;BME280;2914;42.668;23.346;2023-01-28T01:36:39;93894.36;;;1.51;100.00
5777;BME280;2914;42.668;23.346;2023-01-28T01:39:11;93901.94;;;1.55;100.00
5777;BME280;2914;42.668;23.346;2023-01-28T01:41:40;93895.39;;;1.36;100.00
5777;BME280;2914;42.668;23.346;2023-01-28T01:47:24;93902.70;;;1.49;100.00
5777;BME280;2914;42.668;23.346;2023-01-28T01:49:55;93902.20;;;1.57;100.00
5777;BME280;2914;42.668;23.346;2023-01-28T01:52:27;93899.28;;;1.62;100.00
5777;BME280;2914;42.668;23.346;2023-01-28T01:54:58;93887.44;;;1.45;100.00
5777;BME280;2914;42.668;23.346;2023-01-28T01:57:31;93904.43;;;1.56;100.00
5777;BME280;2914;42.668;23.346;2023-01-28T02:00:02;93897.73;;;1.46;100.00
5777;BME280;2914;42.668;23.346;2023-01-28T02:02:37;93902.87;;;1.53;100.00
5777;BME280;2914;42.668;23.346;2023-01-28T02:05:10;93907.64;;;1.47;100.00
5777;BME280;2914;42.668;23.346;2023-01-28T02:07:39;93911.80;;;1.49;100.00
5777;BME280;2914;42.668;23.346;2023-01-28T02:10:11;93909.63;;;1.56;100.00
5777;BME280;2914;42.668;23.346;2023-01-28T02:12:43;93912.28;;;1.49;100.00
5777;BME280;2914;42.668;23.346;2023-01-28T02:15:16;93917.21;;;1.59;100.00
5777;BME280;2914;42.668;23.346;2023-01-28T02:17:47;93912.60;;;1.57;100.00
5777;BME280;2914;42.668;23.346;2023-01-28T02:23:21;93917.79;;;1.70;100.00
5777;BME280;2914;42.668;23.346;2023-01-28T02:29:06;93922.44;;;1.72;100.00
5777;BME280;2914;42.668;23.346;2023-01-28T02:31:39;93923.23;;;1.47;100.00
5777;BME280;2914;42.668;23.346;2023-01-28T02:34:12;93919.45;;;1.45;100.00
5777;BME280;2914;42.668;23.346;2023-01-28T02:36:44;93921.45;;;1.34;100.00
5777;BME280;2914;42.668;23.346;2023-01-28T02:39:17;93924.14;;;1.40;100.00
5777;BME280;2914;42.668;23.346;2023-01-28T02:41:49;93919.81;;;1.59;100.00
5777;BME280;2914;42.668;23.346;2023-01-28T02:44:18;93924.14;;;1.53;100.00
5777;BME280;2914;42.668;23.346;2023-01-28T02:46:50;93919.42;;;1.52;100.00
5777;BME280;2914;42.668;23.346;2023-01-28T02:49:42;93921.06;;;1.53;100.00
5777;BME280;2914;42.668;23.346;2023-01-28T02:52:37;93923.50;;;1.49;100.00
5777;BME280;2914;42.668;23.346;2023-01-28T02:58:09;93926.92;;;1.37;100.00
5777;BME280;2914;42.668;23.346;2023-01-28T03:00:44;93924.00;;;1.29;100.00
5777;BME280;2914;42.668;23.346;2023-01-28T03:03:19;93921.38;;;1.36;100.00
5777;BME280;2914;42.668;23.346;2023-01-28T03:08:39;93921.59;;;1.46;100.00
5777;BME280;2914;42.668;23.346;2023-01-28T03:11:29;93937.08;;;1.47;100.00
5777;BME280;2914;42.668;23.346;2023-01-28T03:14:17;93926.74;;;1.40;100.00
5777;BME280;2914;42.668;23.346;2023-01-28T03:17:07;93931.95;;;1.33;100.00
5777;BME280;2914;42.668;23.346;2023-01-28T03:19:54;93929.62;;;1.23;100.00
5777;BME280;2914;42.668;23.346;2023-01-28T03:22:42;93936.28;;;1.27;100.00
5777;BME280;2914;42.668;23.346;2023-01-28T03:25:30;93936.48;;;1.24;100.00
5777;BME280;2914;42.668;23.346;2023-01-28T03:28:19;93939.09;;;1.16;100.00
5777;BME280;2914;42.668;23.346;2023-01-28T03:31:09;93939.68;;;1.14;100.00
5777;BME280;2914;42.668;23.346;2023-01-28T03:33:57;93932.77;;;1.21;100.00
5777;BME280;2914;42.668;23.346;2023-01-28T03:36:46;93933.67;;;1.27;100.00
5777;BME280;2914;42.668;23.346;2023-01-28T03:39:18;93939.08;;;1.24;100.00
5777;BME280;2914;42.668;23.346;2023-01-28T03:42:01;93940.50;;;1.35;100.00
5777;BME280;2914;42.668;23.346;2023-01-28T03:44:31;93944.84;;;1.34;100.00
5777;BME280;2914;42.668;23.346;2023-01-28T03:47:21;93940.34;;;1.31;100.00
5777;BME280;2914;42.668;23.346;2023-01-28T03:49:52;93934.06;;;1.21;100.00
5777;BME280;2914;42.668;23.346;2023-01-28T03:52:23;93943.05;;;1.29;100.00
5777;BME280;2914;42.668;23.346;2023-01-28T03:57:37;93945.10;;;1.24;100.00
5777;BME280;2914;42.668;23.346;2023-01-28T04:00:09;93945.16;;;1.30;100.00
5777;BME280;2914;42.668;23.346;2023-01-28T04:02:38;93949.76;;;1.19;100.00
5777;BME280;2914;42.668;23.346;2023-01-28T04:05:09;93947.80;;;1.23;100.00
5777;BME280;2914;42.668;23.346;2023-01-28T04:07:42;93946.63;;;1.34;100.00
5777;BME280;2914;42.668;23.346;2023-01-28T04:10:11;93950.13;;;1.40;100.00
5777;BME280;2914;42.668;23.346;2023-01-28T04:12:41;93958.43;;;1.45;100.00
5777;BME280;2914;42.668;23.346;2023-01-28T04:15:11;93955.73;;;1.47;100.00
5777;BME280;2914;42.668;23.346;2023-01-28T04:17:45;93960.92;;;1.47;100.00
5777;BME280;2914;42.668;23.346;2023-01-28T04:20:16;93960.87;;;1.41;100.00
5777;BME280;2914;42.668;23.346;2023-01-28T04:22:45;93962.32;;;1.32;100.00
5777;BME280;2914;42.668;23.346;2023-01-28T04:25:14;93969.20;;;1.26;100.00
5777;BME280;2914;42.668;23.346;2023-01-28T04:27:44;93968.09;;;1.10;100.00
5777;BME280;2914;42.668;23.346;2023-01-28T04:30:13;93970.92;;;1.20;100.00
5777;BME280;2914;42.668;23.346;2023-01-28T04:32:42;93971.44;;;1.05;100.00
5777;BME280;2914;42.668;23.346;2023-01-28T04:35:17;93974.52;;;1.05;100.00
5777;BME280;2914;42.668;23.346;2023-01-28T04:37:46;93976.88;;;0.95;100.00
5777;BME280;2914;42.668;23.346;2023-01-28T04:42:55;93978.92;;;1.10;100.00
5777;BME280;2914;42.668;23.346;2023-01-28T04:45:25;93991.64;;;1.14;100.00
5777;BME280;2914;42.668;23.346;2023-01-28T04:47:54;93989.21;;;1.18;100.00
5777;BME280;2914;42.668;23.346;2023-01-28T04:50:24;93988.34;;;1.25;100.00
5777;BME280;2914;42.668;23.346;2023-01-28T04:52:53;93990.88;;;1.20;100.00
5777;BME280;2914;42.668;23.346;2023-01-28T04:55:22;93988.80;;;1.25;100.00
5777;BME280;2914;42.668;23.346;2023-01-28T04:57:51;93992.31;;;1.31;100.00
5777;BME280;2914;42.668;23.346;2023-01-28T05:00:21;93990.84;;;1.27;100.00
5777;BME280;2914;42.668;23.346;2023-01-28T05:02:50;93991.56;;;1.29;100.00
5777;BME280;2914;42.668;23.346;2023-01-28T05:05:19;93997.67;;;1.35;100.00
5777;BME280;2914;42.668;23.346;2023-01-28T05:07:52;94003.77;;;1.21;100.00
5777;BME280;2914;42.668;23.346;2023-01-28T05:10:22;94003.46;;;1.26;100.00
5777;BME280;2914;42.668;23.346;2023-01-28T05:12:51;94004.59;;;1.22;100.00
5777;BME280;2914;42.668;23.346;2023-01-28T05:15:21;94009.92;;;1.33;100.00
5777;BME280;2914;42.668;23.346;2023-01-28T05:17:52;94011.76;;;1.38;100.00
5777;BME280;2914;42.668;23.346;2023-01-28T05:20:20;94023.08;;;1.37;100.00
5777;BME280;2914;42.668;23.346;2023-01-28T05:22:49;94013.30;;;1.28;100.00
5777;BME280;2914;42.668;23.346;2023-01-28T05:25:19;94018.67;;;1.32;100.00
5777;BME280;2914;42.668;23.346;2023-01-28T05:27:51;94022.78;;;1.22;100.00
5777;BME280;2914;42.668;23.346;2023-01-28T05:30:20;94023.36;;;1.20;100.00
5777;BME280;2914;42.668;23.346;2023-01-28T05:32:54;94027.73;;;1.12;100.00
5777;BME280;2914;42.668;23.346;2023-01-28T05:35:25;94028.62;;;0.98;100.00
5777;BME280;2914;42.668;23.346;2023-01-28T05:37:53;94029.69;;;1.08;100.00
5777;BME280;2914;42.668;23.346;2023-01-28T05:40:23;94037.03;;;1.01;100.00
5777;BME280;2914;42.668;23.346;2023-01-28T05:45:28;94031.16;;;1.20;100.00
5777;BME280;2914;42.668;23.346;2023-01-28T05:47:57;94035.05;;;1.20;100.00
5777;BME280;2914;42.668;23.346;2023-01-28T05:50:26;94032.42;;;1.27;100.00
5777;BME280;2914;42.668;23.346;2023-01-28T05:52:55;94031.77;;;1.23;100.00
5777;BME280;2914;42.668;23.346;2023-01-28T05:58:01;94033.75;;;1.12;100.00
5777;BME280;2914;42.668;23.346;2023-01-28T06:00:30;94034.43;;;1.01;100.00
5777;BME280;2914;42.668;23.346;2023-01-28T06:05:37;94043.97;;;1.08;100.00
5777;BME280;2914;42.668;23.346;2023-01-28T06:10:43;94062.63;;;1.08;100.00
5777;BME280;2914;42.668;23.346;2023-01-28T06:13:12;94063.28;;;1.04;100.00
5777;BME280;2914;42.668;23.346;2023-01-28T06:18:19;94078.04;;;1.04;100.00
5777;BME280;2914;42.668;23.346;2023-01-28T06:23:33;94073.69;;;0.97;100.00
5777;BME280;2914;42.668;23.346;2023-01-28T06:26:04;94081.77;;;0.85;100.00
5777;BME280;2914;42.668;23.346;2023-01-28T06:28:33;94087.60;;;0.96;100.00
5777;BME280;2914;42.668;23.346;2023-01-28T06:31:05;94095.79;;;0.90;100.00
5777;BME280;2914;42.668;23.346;2023-01-28T06:33:34;94096.59;;;0.97;100.00
5777;BME280;2914;42.668;23.346;2023-01-28T06:36:05;94094.10;;;1.03;100.00
5777;BME280;2914;42.668;23.346;2023-01-28T06:38:34;94094.30;;;0.93;100.00
5777;BME280;2914;42.668;23.346;2023-01-28T06:41:04;94102.48;;;0.87;100.00
5777;BME280;2914;42.668;23.346;2023-01-28T06:43:33;94109.05;;;0.78;100.00
5777;BME280;2914;42.668;23.346;2023-01-28T06:46:04;94107.56;;;0.81;100.00
5777;BME280;2914;42.668;23.346;2023-01-28T06:48:34;94109.81;;;0.80;100.00
5777;BME280;2914;42.668;23.346;2023-01-28T06:51:04;94110.05;;;0.97;100.00
5777;BME280;2914;42.668;23.346;2023-01-28T06:53:33;94119.98;;;0.90;100.00
5777;BME280;2914;42.668;23.346;2023-01-28T06:56:03;94122.38;;;0.93;100.00
5777;BME280;2914;42.668;23.346;2023-01-28T06:58:32;94124.73;;;0.91;100.00
5777;BME280;2914;42.668;23.346;2023-01-28T07:01:02;94126.58;;;0.89;100.00
5777;BME280;2914;42.668;23.346;2023-01-28T07:03:31;94129.35;;;0.93;100.00
5777;BME280;2914;42.668;23.346;2023-01-28T07:06:00;94133.72;;;0.92;100.00
5777;BME280;2914;42.668;23.346;2023-01-28T07:08:30;94126.39;;;0.84;100.00
5777;BME280;2914;42.668;23.346;2023-01-28T07:11:00;94133.82;;;0.91;100.00
5777;BME280;2914;42.668;23.346;2023-01-28T07:13:31;94138.27;;;1.03;100.00
5777;BME280;2914;42.668;23.346;2023-01-28T07:16:00;94145.94;;;0.97;100.00
5777;BME280;2914;42.668;23.346;2023-01-28T07:18:31;94138.83;;;0.87;100.00
5777;BME280;2914;42.668;23.346;2023-01-28T07:21:00;94151.05;;;1.06;100.00
5777;BME280;2914;42.668;23.346;2023-01-28T07:23:29;94154.29;;;1.17;100.00
5777;BME280;2914;42.668;23.346;2023-01-28T07:26:01;94163.65;;;1.12;100.00
5777;BME280;2914;42.668;23.346;2023-01-28T07:28:30;94162.63;;;1.15;100.00
5777;BME280;2914;42.668;23.346;2023-01-28T07:31:00;94167.56;;;1.20;100.00
5777;BME280;2914;42.668;23.346;2023-01-28T07:33:29;94168.28;;;1.22;100.00
5777;BME280;2914;42.668;23.346;2023-01-28T07:35:58;94171.53;;;1.25;100.00
5777;BME280;2914;42.668;23.346;2023-01-28T07:38:27;94174.23;;;1.24;100.00
5777;BME280;2914;42.668;23.346;2023-01-28T07:40:56;94173.41;;;1.09;100.00
5777;BME280;2914;42.668;23.346;2023-01-28T07:43:25;94182.77;;;1.18;100.00
5777;BME280;2914;42.668;23.346;2023-01-28T07:45:55;94181.94;;;1.04;100.00
5777;BME280;2914;42.668;23.346;2023-01-28T07:48:24;94183.51;;;1.13;100.00
5777;BME280;2914;42.668;23.346;2023-01-28T07:53:31;94169.98;;;1.15;100.00
5777;BME280;2914;42.668;23.346;2023-01-28T07:56:01;94186.47;;;1.22;100.00
5777;BME280;2914;42.668;23.346;2023-01-28T07:58:31;94191.46;;;1.39;100.00
5777;BME280;2914;42.668;23.346;2023-01-28T08:01:02;94185.80;;;1.32;99.52
5777;BME280;2914;42.668;23.346;2023-01-28T08:06:09;94195.28;;;1.19;100.00
5777;BME280;2914;42.668;23.346;2023-01-28T08:11:16;94194.91;;;1.18;100.00
5777;BME280;2914;42.668;23.346;2023-01-28T08:13:45;94197.50;;;1.18;100.00
5777;BME280;2914;42.668;23.346;2023-01-28T08:16:15;94203.73;;;1.08;100.00
5777;BME280;2914;42.668;23.346;2023-01-28T08:18:44;94209.48;;;1.13;100.00
5777;BME280;2914;42.668;23.346;2023-01-28T08:21:13;94196.97;;;1.13;100.00
5777;BME280;2914;42.668;23.346;2023-01-28T08:23:42;94211.27;;;1.13;100.00
5777;BME280;2914;42.668;23.346;2023-01-28T08:26:11;94211.16;;;1.00;100.00
5777;BME280;2914;42.668;23.346;2023-01-28T08:28:40;94217.11;;;1.02;100.00
5777;BME280;2914;42.668;23.346;2023-01-28T08:31:09;94201.14;;;1.01;100.00
5777;BME280;2914;42.668;23.346;2023-01-28T08:33:40;94213.94;;;1.04;100.00
5777;BME280;2914;42.668;23.346;2023-01-28T08:36:10;94216.08;;;1.12;100.00
5777;BME280;2914;42.668;23.346;2023-01-28T08:38:39;94214.97;;;1.16;100.00
5777;BME280;2914;42.668;23.346;2023-01-28T08:41:10;94211.34;;;1.18;100.00
5777;BME280;2914;42.668;23.346;2023-01-28T08:43:39;94207.06;;;1.25;100.00
5777;BME280;2914;42.668;23.346;2023-01-28T08:46:08;94210.31;;;1.28;99.69
5777;BME280;2914;42.668;23.346;2023-01-28T08:48:37;94206.30;;;1.37;99.54
5777;BME280;2914;42.668;23.346;2023-01-28T08:51:07;94207.70;;;1.35;99.34
5777;BME280;2914;42.668;23.346;2023-01-28T08:53:36;94212.34;;;1.30;99.46
5777;BME280;2914;42.668;23.346;2023-01-28T08:56:06;94216.16;;;1.39;99.79
5777;BME280;2914;42.668;23.346;2023-01-28T08:58:36;94210.48;;;1.40;99.12
5777;BME280;2914;42.668;23.346;2023-01-28T09:01:06;94213.47;;;1.33;98.55
5777;BME280;2914;42.668;23.346;2023-01-28T09:03:35;94224.72;;;1.20;98.81
5777;BME280;2914;42.668;23.346;2023-01-28T09:08:44;94214.75;;;1.41;99.16
5777;BME280;2914;42.668;23.346;2023-01-28T09:11:13;94221.98;;;1.50;98.74
5777;BME280;2914;42.668;23.346;2023-01-28T09:13:42;94221.52;;;1.50;98.57
5777;BME280;2914;42.668;23.346;2023-01-28T09:16:11;94227.93;;;1.45;97.96
5777;BME280;2914;42.668;23.346;2023-01-28T09:18:41;94224.89;;;1.31;98.50
5777;BME280;2914;42.668;23.346;2023-01-28T09:21:10;94223.45;;;1.47;98.25
5777;BME280;2914;42.668;23.346;2023-01-28T09:23:40;94221.89;;;1.51;99.02
5777;BME280;2914;42.668;23.346;2023-01-28T09:26:09;94222.14;;;1.61;100.00
5777;BME280;2914;42.668;23.346;2023-01-28T09:28:39;94226.61;;;1.52;99.37
5777;BME280;2914;42.668;23.346;2023-01-28T09:31:10;94219.48;;;1.48;99.57
5777;BME280;2914;42.668;23.346;2023-01-28T09:33:41;94219.92;;;1.62;99.77
5777;BME280;2914;42.668;23.346;2023-01-28T09:36:11;94216.21;;;1.52;99.22
5777;BME280;2914;42.668;23.346;2023-01-28T09:38:41;94217.59;;;1.65;99.16
5777;BME280;2914;42.668;23.346;2023-01-28T09:41:33;94219.14;;;1.67;99.31
5777;BME280;2914;42.668;23.346;2023-01-28T09:44:17;94224.27;;;1.69;98.35
5777;BME280;2914;42.668;23.346;2023-01-28T09:46:49;94223.22;;;1.79;99.28
5777;BME280;2914;42.668;23.346;2023-01-28T09:49:22;94213.64;;;2.07;100.00
5777;BME280;2914;42.668;23.346;2023-01-28T09:51:53;94213.23;;;2.13;99.01
5777;BME280;2914;42.668;23.346;2023-01-28T09:54:32;94217.68;;;2.18;98.82
5777;BME280;2914;42.668;23.346;2023-01-28T09:57:03;94222.41;;;1.98;97.89
5777;BME280;2914;42.668;23.346;2023-01-28T09:59:35;94220.19;;;1.92;97.46
5777;BME280;2914;42.668;23.346;2023-01-28T10:02:16;94217.06;;;2.07;97.37
5777;BME280;2914;42.668;23.346;2023-01-28T10:07:33;94210.80;;;1.97;97.69
5777;BME280;2914;42.668;23.346;2023-01-28T10:10:07;94219.02;;;1.83;98.42
5777;BME280;2914;42.668;23.346;2023-01-28T10:16:00;94207.34;;;2.03;98.79
5777;BME280;2914;42.668;23.346;2023-01-28T10:18:36;94203.11;;;1.88;97.81
5777;BME280;2914;42.668;23.346;2023-01-28T10:21:11;94208.52;;;1.85;99.35
5777;BME280;2914;42.668;23.346;2023-01-28T10:26:24;94211.62;;;1.77;98.07
5777;BME280;2914;42.668;23.346;2023-01-28T10:28:57;94212.64;;;1.67;98.71
5777;BME280;2914;42.668;23.346;2023-01-28T10:31:30;94215.75;;;1.60;99.43
5777;BME280;2914;42.668;23.346;2023-01-28T10:34:01;94213.05;;;1.61;99.55
5777;BME280;2914;42.668;23.346;2023-01-28T10:36:31;94212.27;;;1.74;99.79
5777;BME280;2914;42.668;23.346;2023-01-28T10:39:01;94212.44;;;1.78;100.00
5777;BME280;2914;42.668;23.346;2023-01-28T10:41:30;94213.27;;;1.78;100.00
5777;BME280;2914;42.668;23.346;2023-01-28T10:44:00;94204.88;;;1.88;100.00
5777;BME280;2914;42.668;23.346;2023-01-28T10:46:31;94215.69;;;1.74;99.21
5777;BME280;2914;42.668;23.346;2023-01-28T10:51:42;94210.14;;;1.73;99.48
5777;BME280;2914;42.668;23.346;2023-01-28T10:54:22;94210.66;;;1.78;99.49
5777;BME280;2914;42.668;23.346;2023-01-28T10:59:33;94206.77;;;1.85;99.33
5777;BME280;2914;42.668;23.346;2023-01-28T11:02:04;94206.02;;;1.83;98.95
5777;BME280;2914;42.668;23.346;2023-01-28T11:07:18;94206.94;;;1.82;99.61
5777;BME280;2914;42.668;23.346;2023-01-28T11:09:49;94210.56;;;1.80;99.49
5777;BME280;2914;42.668;23.346;2023-01-28T11:12:21;94207.41;;;1.82;98.53
5777;BME280;2914;42.668;23.346;2023-01-28T11:14:53;94201.19;;;1.84;98.26
5777;BME280;2914;42.668;23.346;2023-01-28T11:17:24;94199.23;;;1.81;97.31
5777;BME280;2914;42.668;23.346;2023-01-28T11:19:55;94202.59;;;1.83;97.16
5777;BME280;2914;42.668;23.346;2023-01-28T11:22:30;94201.25;;;1.90;97.15
5777;BME280;2914;42.668;23.346;2023-01-28T11:25:03;94193.66;;;1.80;97.35
5777;BME280;2914;42.668;23.346;2023-01-28T11:27:33;94199.74;;;1.73;97.18
5777;BME280;2914;42.668;23.346;2023-01-28T11:30:03;94202.31;;;1.80;97.35
5777;BME280;2914;42.668;23.346;2023-01-28T11:32:34;94199.55;;;1.76;97.18
5777;BME280;2914;42.668;23.346;2023-01-28T11:35:05;94202.05;;;1.78;97.25
5777;BME280;2914;42.668;23.346;2023-01-28T11:40:18;94197.80;;;1.69;97.47
5777;BME280;2914;42.668;23.346;2023-01-28T11:45:37;94192.97;;;1.91;97.63
5777;BME280;2914;42.668;23.346;2023-01-28T11:48:15;94185.23;;;1.96;97.36
5777;BME280;2914;42.668;23.346;2023-01-28T11:50:47;94182.62;;;2.03;96.14
5777;BME280;2914;42.668;23.346;2023-01-28T11:53:29;94183.02;;;1.97;94.75
5777;BME280;2914;42.668;23.346;2023-01-28T11:58:42;94186.59;;;2.09;94.96
5777;BME280;2914;42.668;23.346;2023-01-28T12:01:15;94196.70;;;1.94;93.88
5777;BME280;2914;42.668;23.346;2023-01-28T12:06:37;94178.64;;;2.38;100.00
5777;BME280;2914;42.668;23.346;2023-01-28T12:11:53;94187.00;;;2.36;93.41
5777;BME280;2914;42.668;23.346;2023-01-28T12:17:55;94195.50;;;2.32;92.35
5777;BME280;2914;42.668;23.346;2023-01-28T12:23:38;94195.77;;;2.35;92.66
5777;BME280;2914;42.668;23.346;2023-01-28T12:29:03;94202.44;;;2.19;92.92
5777;BME280;2914;42.668;23.346;2023-01-28T12:37:39;94191.20;;;2.18;93.82
5777;BME280;2914;42.668;23.346;2023-01-28T12:40:20;94194.30;;;2.11;94.23
5777;BME280;2914;42.668;23.346;2023-01-28T12:42:52;94202.75;;;2.14;95.89
5777;BME280;2914;42.668;23.346;2023-01-28T12:45:25;94201.84;;;2.28;94.71
5777;BME280;2914;42.668;23.346;2023-01-28T12:47:57;94203.41;;;2.11;94.15
5777;BME280;2914;42.668;23.346;2023-01-28T12:53:11;94208.67;;;2.16;94.25
5777;BME280;2914;42.668;23.346;2023-01-28T12:55:41;94219.12;;;2.09;95.07
5777;BME280;2914;42.668;23.346;2023-01-28T13:01:11;94217.05;;;2.34;95.22
5777;BME280;2914;42.668;23.346;2023-01-28T13:04:02;94214.53;;;2.13;94.01
5777;BME280;2914;42.668;23.346;2023-01-28T13:09:18;94222.48;;;2.04;94.54
5777;BME280;2914;42.668;23.346;2023-01-28T13:11:52;94227.48;;;2.07;94.58
5777;BME280;2914;42.668;23.346;2023-01-28T13:14:23;94227.06;;;2.20;94.68
5777;BME280;2914;42.668;23.346;2023-01-28T13:16:53;94229.45;;;2.31;94.61
5777;BME280;2914;42.668;23.346;2023-01-28T13:22:09;94237.98;;;2.53;93.93
5777;BME280;2914;42.668;23.346;2023-01-28T13:24:42;94234.13;;;2.38;93.40
5777;BME280;2914;42.668;23.346;2023-01-28T13:27:23;94237.81;;;2.49;93.49
5777;BME280;2914;42.668;23.346;2023-01-28T13:30:03;94241.56;;;2.58;93.30
5777;BME280;2914;42.668;23.346;2023-01-28T13:32:34;94246.55;;;2.48;92.66
5777;BME280;2914;42.668;23.346;2023-01-28T13:35:06;94237.48;;;2.41;92.50
5777;BME280;2914;42.668;23.346;2023-01-28T13:37:38;94248.32;;;2.27;92.67
5777;BME280;2914;42.668;23.346;2023-01-28T13:40:20;94244.79;;;2.28;92.15
5777;BME280;2914;42.668;23.346;2023-01-28T13:43:01;94249.39;;;2.17;92.57
5777;BME280;2914;42.668;23.346;2023-01-28T13:45:31;94253.25;;;2.25;92.26
5777;BME280;2914;42.668;23.346;2023-01-28T13:48:12;94260.78;;;2.02;92.53
5777;BME280;2914;42.668;23.346;2023-01-28T13:50:41;94253.94;;;1.94;93.25
5777;BME280;2914;42.668;23.346;2023-01-28T13:56:00;94264.88;;;1.92;93.80
5777;BME280;2914;42.668;23.346;2023-01-28T13:58:56;94275.52;;;1.81;94.54
5777;BME280;2914;42.668;23.346;2023-01-28T14:04:55;94275.50;;;1.74;95.25
5777;BME280;2914;42.668;23.346;2023-01-28T14:07:52;94275.69;;;1.85;95.36
5777;BME280;2914;42.668;23.346;2023-01-28T14:13:33;94284.12;;;1.89;95.47
5777;BME280;2914;42.668;23.346;2023-01-28T14:16:19;94292.88;;;1.74;95.82
5777;BME280;2914;42.668;23.346;2023-01-28T14:21:27;94299.22;;;1.62;96.97
5777;BME280;2914;42.668;23.346;2023-01-28T14:23:58;94298.47;;;1.60;97.12
5777;BME280;2914;42.668;23.346;2023-01-28T14:26:42;94301.54;;;1.60;97.09
5777;BME280;2914;42.668;23.346;2023-01-28T14:32:04;94294.83;;;2.46;100.00
5777;BME280;2914;42.668;23.346;2023-01-28T14:34:35;94293.87;;;3.65;100.00
5777;BME280;2914;42.668;23.346;2023-01-28T14:39:46;94305.58;;;2.27;98.92
5777;BME280;2914;42.668;23.346;2023-01-28T14:42:20;94310.98;;;1.90;97.36
5777;BME280;2914;42.668;23.346;2023-01-28T14:47:44;94307.16;;;1.88;97.29
5777;BME280;2914;42.668;23.346;2023-01-28T14:50:26;94314.78;;;1.84;97.52
5777;BME280;2914;42.668;23.346;2023-01-28T14:59:13;94325.21;;;1.69;99.00
5777;BME280;2914;42.668;23.346;2023-01-28T15:01:45;94328.83;;;1.81;98.21
5777;BME280;2914;42.668;23.346;2023-01-28T15:04:24;94329.00;;;1.78;97.55
5777;BME280;2914;42.668;23.346;2023-01-28T15:06:54;94319.94;;;1.57;97.36
5777;BME280;2914;42.668;23.346;2023-01-28T15:09:24;94329.66;;;1.39;97.91
5777;BME280;2914;42.668;23.346;2023-01-28T15:11:57;94332.25;;;1.39;98.52
5777;BME280;2914;42.668;23.346;2023-01-28T15:17:11;94335.88;;;1.29;98.20
5777;BME280;2914;42.668;23.346;2023-01-28T15:19:41;94337.20;;;1.36;97.39
5777;BME280;2914;42.668;23.346;2023-01-28T15:22:15;94328.17;;;1.27;96.79
5777;BME280;2914;42.668;23.346;2023-01-28T15:24:44;94336.82;;;1.35;96.42
5777;BME280;2914;42.668;23.346;2023-01-28T15:27:17;94339.04;;;1.34;96.30
5777;BME280;2914;42.668;23.346;2023-01-28T15:29:52;94340.63;;;1.29;97.24
5777;BME280;2914;42.668;23.346;2023-01-28T15:35:02;94341.16;;;1.27;97.44
5777;BME280;2914;42.668;23.346;2023-01-28T15:37:34;94340.44;;;1.25;97.78
5777;BME280;2914;42.668;23.346;2023-01-28T15:40:16;94339.98;;;1.47;100.00
5777;BME280;2914;42.668;23.346;2023-01-28T15:42:37;94346.84;;;1.34;99.67
5777;BME280;2914;42.668;23.346;2023-01-28T15:45:15;94352.80;;;1.36;98.80
5777;BME280;2914;42.668;23.346;2023-01-28T15:47:47;94354.28;;;1.40;98.64
5777;BME280;2914;42.668;23.346;2023-01-28T15:50:19;94342.46;;;1.34;98.90
5777;BME280;2914;42.668;23.346;2023-01-28T15:52:49;94355.48;;;1.49;99.09
5777;BME280;2914;42.668;23.346;2023-01-28T15:55:32;94351.94;;;1.43;98.39
5777;BME280;2914;42.668;23.346;2023-01-28T15:58:19;94359.29;;;1.43;98.70
5777;BME280;2914;42.668;23.346;2023-01-28T16:00:48;94363.57;;;1.44;98.63
5777;BME280;2914;42.668;23.346;2023-01-28T16:03:23;94360.97;;;1.44;98.30
5777;BME280;2914;42.668;23.346;2023-01-28T16:08:37;94363.83;;;1.47;98.11
5777;BME280;2914;42.668;23.346;2023-01-28T16:11:07;94375.62;;;1.45;97.78